Time;durP1;ratioP1;P1;durP2;ratioP2;P2;SDS_P1;SDS_P2;PMS_P1;PMS_P2;Temp;Humidity;BMP_temperature;BMP_pressure;BME280_temperature;BME280_humidity;BME280_pressure;Samples;Min_cycle;Max_cycle;Signal;HPM_P1;HPM_P2
2021/01/05 05:10:58;;;;;;;25.93;18.20;;;3.20;99.90;;;;;;4296898;23;20220;-94
2021/01/05 05:17:53;;;;;;;23.73;15.50;;;3.10;99.90;;;;;;3987763;29;20209;-93
2021/01/05 06:42:13;;;;;;;24.27;16.17;;;3.40;99.90;;;;;;4010384;29;20230;-93
2021/01/05 06:48:02;;;;;;;24.00;15.47;;;3.40;99.90;;;;;;4207657;23;20199;31
2021/01/05 06:50:09;;;;;;;25.30;14.73;;;3.30;99.90;;;;;;3995644;29;20681;-94
2021/01/05 06:52:37;;;;;;;26.13;16.30;;;3.30;99.90;;;;;;4148382;23;20700;-94
2021/01/05 06:54:53;;;;;;;27.60;16.47;;;3.30;99.90;;;;;;3999375;29;20211;-95
2021/01/05 06:57:28;;;;;;;25.90;15.13;;;3.40;99.90;;;;;;3985718;29;20226;-94
2021/01/05 06:59:33;;;;;;;28.83;16.93;;;3.50;99.90;;;;;;3969057;30;20188;-92
2021/01/05 07:01:36;;;;;;;26.20;15.00;;;3.40;99.90;;;;;;3985151;29;20253;-94
2021/01/05 07:47:52;;;;;;;28.53;17.10;;;3.50;99.90;;;;;;4054375;23;20249;-95
2021/01/05 07:49:55;;;;;;;27.07;17.17;;;3.40;99.90;;;;;;3995005;29;20176;-93
2021/01/05 07:52:19;;;;;;;29.53;18.03;;;3.40;99.90;;;;;;4010837;29;20166;-93
2021/01/05 07:54:30;;;;;;;29.33;16.60;;;3.50;99.90;;;;;;4007477;29;20211;-94
2021/01/05 07:56:53;;;;;;;27.47;17.50;;;3.50;99.90;;;;;;3967489;29;20184;-95
2021/01/05 07:58:54;;;;;;;29.83;17.63;;;3.60;99.90;;;;;;3988599;29;20187;-93
2021/01/05 08:00:55;;;;;;;28.20;17.57;;;3.50;99.90;;;;;;3995402;29;20274;-94
2021/01/05 08:02:57;;;;;;;29.47;18.63;;;3.60;99.90;;;;;;3995355;29;20182;-92
2021/01/05 08:04:58;;;;;;;34.70;20.60;;;3.60;99.90;;;;;;3994199;29;20216;-93
2021/01/05 08:07:04;;;;;;;28.70;18.10;;;3.60;99.90;;;;;;3994457;29;20179;-94
2021/01/05 08:09:05;;;;;;;28.07;17.97;;;3.50;99.90;;;;;;4009067;29;20691;-93
2021/01/05 08:11:05;;;;;;;30.03;18.83;;;3.40;99.90;;;;;;3993982;29;20180;-94
2021/01/05 08:13:10;;;;;;;26.93;16.80;;;3.40;99.90;;;;;;4011817;29;20185;-93
2021/01/05 08:15:19;;;;;;;29.43;18.83;;;3.40;99.90;;;;;;4006894;29;20214;-91
2021/01/05 08:17:20;;;;;;;29.90;18.50;;;3.50;99.90;;;;;;3986502;29;20243;-93
2021/01/05 08:19:21;;;;;;;32.20;18.93;;;3.40;99.90;;;;;;4003918;29;20616;-92
2021/01/05 08:21:49;;;;;;;30.90;17.73;;;3.40;99.90;;;;;;4008441;29;20212;-93
2021/01/05 08:23:58;;;;;;;29.33;17.63;;;3.50;99.90;;;;;;4009817;29;20254;-94
2021/01/05 08:26:25;;;;;;;28.80;16.80;;;3.50;99.90;;;;;;4012973;29;20193;-93
2021/01/05 08:28:37;;;;;;;29.60;18.10;;;3.50;99.90;;;;;;4009534;29;20182;-93
2021/01/05 08:30:43;;;;;;;31.63;18.53;;;3.50;99.90;;;;;;4009350;29;20171;-93
2021/01/05 08:32:44;;;;;;;30.33;17.97;;;3.60;99.90;;;;;;4009338;29;20198;-94
2021/01/05 08:34:46;;;;;;;32.23;19.03;;;3.60;99.90;;;;;;3994514;29;20608;-94
2021/01/05 08:36:57;;;;;;;31.37;19.37;;;3.50;99.90;;;;;;4009757;29;20633;-93
2021/01/05 08:39:14;;;;;;;33.00;18.33;;;3.50;99.90;;;;;;4009490;29;20614;-94
2021/01/05 08:41:17;;;;;;;31.43;19.17;;;3.50;99.90;;;;;;4010770;29;20178;-94
2021/01/05 08:46:08;;;;;;;35.20;22.07;;;3.50;99.90;;;;;;4038714;23;20261;-96
2021/01/05 08:48:12;;;;;;;35.20;20.70;;;3.60;99.90;;;;;;3995390;29;20230;-94
2021/01/05 08:50:30;;;;;;;37.40;20.80;;;3.50;99.90;;;;;;4011559;29;20171;-95
2021/01/05 08:52:46;;;;;;;33.63;19.67;;;3.40;99.90;;;;;;3994297;29;20205;-94
2021/01/05 08:55:05;;;;;;;;;;;;;;;;;;;;;
2021/01/05 08:57:13;;;;;;;32.70;17.83;;;3.40;99.90;;;;;;4008653;29;20265;-94
2021/01/05 08:59:24;;;;;;;35.57;20.03;;;3.40;99.90;;;;;;4011175;29;20167;-92
2021/01/05 09:01:25;;;;;;;33.57;20.03;;;3.50;99.90;;;;;;3994267;29;20199;-94
2021/01/05 09:03:25;;;;;;;32.73;18.73;;;3.40;99.90;;;;;;3993923;29;20636;-94
2021/01/05 09:05:26;;;;;;;36.13;19.30;;;3.50;99.90;;;;;;3993092;29;20222;-93
2021/01/05 09:07:29;;;;;;;31.83;19.13;;;3.50;99.90;;;;;;4001260;29;20172;-94
2021/01/05 09:10:12;;;;;;;32.83;19.47;;;3.50;99.90;;;;;;4000715;29;20179;-94
2021/01/05 09:13:26;;;;;;;;;;;;;;;;;;;;;
2021/01/05 09:15:30;;;;;;;32.57;19.10;;;3.50;99.90;;;;;;4016638;29;20205;-93
2021/01/05 09:17:34;;;;;;;29.57;18.60;;;3.60;99.90;;;;;;4000482;29;20320;-95
2021/01/05 09:19:47;;;;;;;29.57;17.20;;;3.50;99.90;;;;;;4014454;29;20186;-94
2021/01/05 09:21:47;;;;;;;33.37;18.93;;;3.50;99.90;;;;;;4009484;29;20319;-94
2021/01/05 09:23:53;;;;;;;32.17;18.30;;;3.50;99.90;;;;;;4008969;29;20182;-94
2021/01/05 09:25:55;;;;;;;33.43;19.23;;;3.50;99.90;;;;;;3994164;29;20251;-92
2021/01/05 09:27:56;;;;;;;31.60;19.23;;;3.50;99.90;;;;;;3993099;29;20220;-95
2021/01/05 09:30:01;;;;;;;30.00;19.00;;;3.50;99.90;;;;;;3993567;29;20262;-95
2021/01/05 09:32:03;;;;;;;29.13;18.10;;;3.50;99.90;;;;;;4010379;29;20222;-90
2021/01/05 09:34:04;;;;;;;32.47;19.50;;;3.60;99.90;;;;;;4018606;29;20206;-91
2021/01/05 11:31:45;;;;;;;34.37;18.80;;;3.60;99.90;;;;;;4278779;23;20241;-88
2021/01/05 11:33:46;;;;;;;35.90;20.27;;;3.60;99.90;;;;;;4009623;29;20218;-89
2021/01/05 11:35:49;;;;;;;32.03;18.40;;;3.70;99.90;;;;;;4008523;29;20258;-92
2021/01/05 11:37:50;;;;;;;27.97;15.03;;;3.80;99.90;;;;;;4001243;29;20176;-91
2021/01/05 11:39:54;;;;;;;41.03;22.27;;;3.70;99.90;;;;;;4002220;29;20231;-92
2021/01/05 11:42:02;;;;;;;39.83;21.87;;;3.70;99.90;;;;;;4001433;29;20655;-93
2021/01/05 11:44:04;;;;;;;33.00;20.03;;;3.70;99.90;;;;;;4004107;29;20199;-93
2021/01/05 11:46:08;;;;;;;35.77;20.70;;;3.70;99.90;;;;;;4022449;29;20206;-92
2021/01/05 11:48:12;;;;;;;40.37;22.67;;;3.70;99.90;;;;;;4016617;29;20174;-91
2021/01/05 11:50:13;;;;;;;39.53;21.47;;;3.80;99.90;;;;;;4001705;29;20184;-94
2021/01/05 11:52:15;;;;;;;39.00;22.77;;;3.70;99.90;;;;;;4002152;29;20293;-93
2021/01/05 11:54:16;;;;;;;40.10;22.90;;;3.60;99.90;;;;;;4002066;29;20597;-93
2021/01/05 11:56:21;;;;;;;36.50;19.67;;;3.50;99.90;;;;;;4016370;29;20175;-91
2021/01/05 11:58:22;;;;;;;41.10;23.03;;;3.60;99.90;;;;;;4000957;29;20172;-94
2021/01/05 12:00:23;;;;;;;40.50;23.37;;;3.60;99.90;;;;;;4000077;29;20182;-95
2021/01/05 12:02:23;;;;;;;37.00;22.40;;;3.60;99.90;;;;;;4015326;29;20657;-92
2021/01/05 12:04:24;;;;;;;39.07;22.13;;;3.60;99.90;;;;;;4001032;29;20222;-90
2021/01/05 12:06:25;;;;;;;37.53;20.97;;;3.60;99.90;;;;;;4016151;29;20261;-91
2021/01/05 12:08:25;;;;;;;36.87;21.77;;;3.60;99.90;;;;;;4016121;29;20231;-92
2021/01/05 12:10:26;;;;;;;38.87;20.10;;;3.60;99.90;;;;;;4015709;29;20179;-91
2021/01/05 12:12:29;;;;;;;32.57;16.57;;;3.60;99.90;;;;;;3998728;29;20220;-93
2021/01/05 12:14:30;;;;;;;36.57;17.53;;;3.60;99.90;;;;;;4015948;29;20262;-90
2021/01/05 12:16:32;;;;;;;35.97;19.73;;;3.60;99.90;;;;;;4001150;29;20184;-92
2021/01/05 12:18:33;;;;;;;39.53;20.73;;;3.70;99.90;;;;;;4000781;29;20167;-90
2021/01/05 12:20:34;;;;;;;37.53;21.50;;;3.80;99.90;;;;;;4015852;29;20173;-91
2021/01/05 12:22:34;;;;;;;36.33;20.27;;;3.90;99.90;;;;;;4000781;29;20177;-91
2021/01/05 12:24:39;;;;;;;34.03;20.73;;;3.70;99.90;;;;;;4015893;29;20186;-90
2021/01/05 12:26:40;;;;;;;33.50;20.23;;;3.70;99.90;;;;;;4000704;29;20210;-91
2021/01/05 12:28:41;;;;;;;33.90;19.30;;;3.70;99.90;;;;;;4015215;29;20175;-91
2021/01/05 12:30:41;;;;;;;34.13;19.70;;;3.70;99.90;;;;;;4008753;29;20539;-91
2021/01/05 12:32:42;;;;;;;32.47;19.07;;;3.70;99.90;;;;;;4009682;29;20235;-92
2021/01/05 12:34:46;;;;;;;31.30;18.13;;;3.70;99.90;;;;;;4010820;29;20213;-90
2021/01/05 12:36:47;;;;;;;29.83;16.90;;;3.80;99.90;;;;;;4008865;29;20638;-92
2021/01/05 12:38:48;;;;;;;33.57;18.33;;;3.80;99.90;;;;;;4008477;29;20194;-92
2021/01/05 12:40:49;;;;;;;28.63;16.10;;;4.00;99.90;;;;;;4023440;29;20182;-95
2021/01/05 12:42:50;;;;;;;35.00;19.80;;;4.00;99.90;;;;;;4008869;29;20170;-92
2021/01/05 12:44:52;;;;;;;34.07;18.43;;;4.00;99.90;;;;;;4023712;29;20228;-92
2021/01/05 12:46:54;;;;;;;32.70;15.97;;;3.90;99.90;;;;;;4008388;29;20179;-91
2021/01/05 12:48:54;;;;;;;35.63;19.30;;;3.90;99.90;;;;;;4008499;29;20175;-92
2021/01/05 12:50:55;;;;;;;29.90;16.47;;;3.90;99.90;;;;;;4008434;29;20182;-91
2021/01/05 12:52:56;;;;;;;30.67;18.00;;;3.80;99.90;;;;;;4023586;29;20629;-91
2021/01/05 12:54:56;;;;;;;30.50;18.40;;;3.80;99.90;;;;;;4008210;29;20202;-91
2021/01/05 12:56:57;;;;;;;30.53;17.60;;;3.80;99.90;;;;;;4008378;29;20179;-92
2021/01/05 12:58:58;;;;;;;33.63;18.33;;;3.90;99.90;;;;;;4023370;29;20202;-91
2021/01/05 13:00:59;;;;;;;31.50;17.10;;;4.00;99.90;;;;;;4008129;29;20179;-93
2021/01/05 13:02:59;;;;;;;31.53;18.23;;;4.10;99.90;;;;;;4008247;29;20175;-91
2021/01/05 13:05:00;;;;;;;31.43;17.80;;;4.20;99.90;;;;;;4007940;29;20564;-92
2021/01/05 13:07:01;;;;;;;27.73;14.97;;;4.30;99.90;;;;;;4008224;29;20311;-91
2021/01/05 13:09:03;;;;;;;31.93;18.40;;;4.30;99.90;;;;;;4008178;29;20540;-91
2021/01/05 13:11:12;;;;;;;30.43;17.07;;;4.40;99.90;;;;;;4008088;29;20179;-92
2021/01/05 13:13:13;;;;;;;31.90;18.70;;;4.40;99.90;;;;;;4007951;29;20179;-92
2021/01/05 13:15:14;;;;;;;31.47;19.27;;;4.40;99.90;;;;;;4023263;29;20206;-91
2021/01/05 13:17:15;;;;;;;33.13;18.40;;;4.30;99.90;;;;;;4008200;29;20182;-93
2021/01/05 13:19:19;;;;;;;31.47;19.00;;;4.20;99.90;;;;;;4023237;29;20269;-91
2021/01/05 13:21:35;;;;;;;32.07;18.77;;;4.10;99.90;;;;;;4008724;29;20179;-91
2021/01/05 13:23:36;;;;;;;31.53;18.53;;;4.00;99.90;;;;;;4008512;29;20206;-92
2021/01/05 13:25:40;;;;;;;37.43;19.20;;;4.00;99.90;;;;;;4007989;29;20320;-92
2021/01/05 13:27:41;;;;;;;31.27;17.70;;;4.00;99.90;;;;;;4008099;29;20171;-91
2021/01/05 13:29:42;;;;;;;36.07;18.80;;;4.00;99.90;;;;;;4023601;29;20201;-92
2021/01/05 13:31:51;;;;;;;30.97;18.17;;;4.00;99.90;;;;;;4008172;29;20228;-92
2021/01/05 13:33:52;;;;;;;36.03;19.60;;;3.90;99.90;;;;;;4008415;29;20736;-92
2021/01/05 13:35:52;;;;;;;32.23;18.07;;;3.90;99.90;;;;;;4023535;29;20171;-92
2021/01/05 13:37:53;;;;;;;30.20;17.27;;;3.80;99.90;;;;;;4008179;29;20238;-91
2021/01/05 13:39:54;;;;;;;33.17;19.07;;;3.80;99.90;;;;;;4008126;29;20192;-91
2021/01/05 13:42:06;;;;;;;38.27;19.77;;;3.80;99.90;;;;;;4007934;29;20163;-90
2021/01/05 13:44:07;;;;;;;34.00;19.60;;;3.70;99.90;;;;;;4023374;29;20622;-92
2021/01/05 13:46:08;;;;;;;37.73;18.97;;;3.70;99.90;;;;;;4023021;29;20701;-92
2021/01/05 13:48:09;;;;;;;35.10;19.60;;;3.80;99.90;;;;;;4023321;29;20170;-91
2021/01/05 13:50:10;;;;;;;35.57;19.53;;;3.90;99.90;;;;;;4007714;29;20183;-92
2021/01/05 13:52:18;;;;;;;33.27;18.63;;;3.90;99.90;;;;;;4007563;29;20221;-92
2021/01/05 13:54:26;;;;;;;33.37;18.97;;;3.90;99.90;;;;;;4007451;29;20209;-94
2021/01/05 13:56:26;;;;;;;36.97;20.90;;;3.90;99.90;;;;;;4007704;29;20258;-91
2021/01/05 13:58:27;;;;;;;34.07;19.73;;;3.80;99.90;;;;;;4008548;29;20171;-92
2021/01/05 14:00:28;;;;;;;34.70;19.13;;;3.80;99.90;;;;;;4007616;29;20690;-91
2021/01/05 14:02:29;;;;;;;33.47;20.07;;;3.80;99.90;;;;;;4007829;29;20289;-92
2021/01/05 14:04:30;;;;;;;36.23;20.57;;;3.80;99.90;;;;;;4022814;29;20594;-91
2021/01/05 14:06:34;;;;;;;33.00;18.90;;;3.80;99.90;;;;;;4008081;29;20230;-91
2021/01/05 14:08:35;;;;;;;38.33;20.20;;;3.90;99.90;;;;;;4022687;29;20273;-92
2021/01/05 14:10:36;;;;;;;33.73;17.90;;;3.90;99.90;;;;;;4008168;29;20182;-92
2021/01/05 14:12:36;;;;;;;37.30;20.37;;;3.90;99.90;;;;;;4007935;29;20175;-92
2021/01/05 14:14:37;;;;;;;31.40;17.30;;;4.00;99.90;;;;;;4007519;29;20630;-91
2021/01/05 14:16:38;;;;;;;35.10;19.47;;;4.00;99.90;;;;;;4007896;29;20175;-94
2021/01/05 14:18:39;;;;;;;37.57;18.50;;;4.00;99.90;;;;;;4007422;29;20167;-92
2021/01/05 14:20:40;;;;;;;34.03;18.93;;;4.20;99.90;;;;;;4007671;29;20182;-93
2021/01/05 14:22:41;;;;;;;37.57;20.33;;;4.20;99.90;;;;;;4007439;29;20186;-93
2021/01/05 14:24:43;;;;;;;36.40;20.20;;;4.10;99.90;;;;;;4023120;29;20198;-92
2021/01/05 14:26:45;;;;;;;41.00;19.77;;;4.00;99.90;;;;;;4023991;29;20186;-93
2021/01/05 14:28:46;;;;;;;34.80;20.20;;;3.90;99.90;;;;;;4007291;29;20167;-93
2021/01/05 14:30:47;;;;;;;36.40;19.73;;;3.90;99.90;;;;;;4007613;29;20539;-93
2021/01/05 14:32:49;;;;;;;35.77;18.80;;;4.00;99.90;;;;;;4007359;29;20742;-93
2021/01/05 14:34:50;;;;;;;37.57;19.83;;;4.00;99.90;;;;;;4007721;29;20275;-93
2021/01/05 14:36:54;;;;;;;37.07;19.73;;;4.10;99.90;;;;;;4023314;29;20170;-94
2021/01/05 14:38:56;;;;;;;38.40;18.87;;;4.10;99.90;;;;;;4007349;29;20615;-93
2021/01/05 14:40:57;;;;;;;36.63;19.70;;;4.10;99.90;;;;;;4007969;29;20203;-93
2021/01/05 14:42:58;;;;;;;36.33;19.27;;;4.10;99.90;;;;;;4022993;29;20214;-93
2021/01/05 14:44:59;;;;;;;36.20;20.07;;;4.00;99.90;;;;;;4007341;29;20227;-93
2021/01/05 14:47:04;;;;;;;37.63;19.60;;;4.10;99.90;;;;;;4007672;29;20181;-92
2021/01/05 14:49:06;;;;;;;35.50;19.97;;;4.00;99.90;;;;;;4022696;29;20186;-93
2021/01/05 14:51:07;;;;;;;34.97;19.20;;;4.00;99.90;;;;;;4007481;29;20179;-93
2021/01/05 14:53:08;;;;;;;37.53;19.97;;;4.10;99.90;;;;;;4022961;29;20730;-92
2021/01/05 14:55:09;;;;;;;39.40;21.50;;;4.10;99.90;;;;;;4007632;29;20182;-92
2021/01/05 14:57:10;;;;;;;39.23;20.23;;;4.20;99.90;;;;;;4007385;29;20601;-92
2021/01/05 14:59:10;;;;;;;41.70;19.73;;;4.20;99.90;;;;;;4022739;29;20174;-93
2021/01/05 15:01:11;;;;;;;36.20;19.70;;;4.20;99.90;;;;;;4007333;29;20267;-92
2021/01/05 15:03:12;;;;;;;37.33;19.50;;;4.20;99.90;;;;;;4007927;29;20201;-93
2021/01/05 15:05:14;;;;;;;38.77;20.47;;;4.20;99.90;;;;;;4025820;29;20527;-93
2021/01/05 15:07:15;;;;;;;39.30;20.57;;;4.20;99.90;;;;;;4026276;29;20182;-91
2021/01/05 15:09:18;;;;;;;40.37;20.07;;;4.20;99.90;;;;;;4011652;29;20227;-93
2021/01/05 15:11:27;;;;;;;43.17;21.10;;;4.20;99.90;;;;;;4013103;29;20183;-93
2021/01/05 15:13:28;;;;;;;36.90;20.27;;;4.20;99.90;;;;;;4013051;29;20199;-93
2021/01/05 15:15:29;;;;;;;40.47;21.43;;;4.20;99.90;;;;;;4016356;29;20209;-89
2021/01/05 15:17:29;;;;;;;42.53;21.37;;;4.10;99.90;;;;;;4031784;29;20179;-94
2021/01/05 15:19:31;;;;;;;37.63;20.13;;;4.00;99.90;;;;;;4017414;29;20178;-93
2021/01/05 15:21:33;;;;;;;36.53;21.30;;;3.90;99.90;;;;;;4015023;29;20171;-94
2021/01/05 15:23:34;;;;;;;41.43;20.80;;;4.00;99.90;;;;;;4013446;29;20220;-93
2021/01/05 15:25:34;;;;;;;40.93;22.73;;;4.00;99.90;;;;;;4018753;29;20206;-94
2021/01/05 15:27:38;;;;;;;37.10;20.90;;;3.90;99.90;;;;;;4027064;29;20201;-93
2021/01/05 15:29:39;;;;;;;41.70;22.30;;;4.00;99.90;;;;;;4010672;29;20182;-92
2021/01/05 15:31:45;;;;;;;40.13;21.17;;;4.00;99.90;;;;;;4009869;29;20534;-91
2021/01/05 15:33:47;;;;;;;41.00;20.53;;;4.10;99.90;;;;;;4009725;29;20199;-92
2021/01/05 15:35:48;;;;;;;46.70;21.97;;;4.10;99.90;;;;;;4009804;29;20255;-92
2021/01/05 15:37:49;;;;;;;40.17;20.60;;;4.20;99.90;;;;;;4060194;23;20179;-93
2021/01/05 15:39:50;;;;;;;37.63;21.80;;;4.20;99.90;;;;;;3998466;29;20275;-93
2021/01/05 15:41:54;;;;;;;39.80;20.53;;;4.30;99.90;;;;;;4000725;29;20201;-94
2021/01/05 15:43:55;;;;;;;36.93;21.03;;;4.30;99.90;;;;;;4009677;29;20706;-94
2021/01/05 15:45:57;;;;;;;35.47;20.17;;;4.20;99.90;;;;;;3986160;29;20227;-94
2021/01/05 15:48:08;;;;;;;38.97;21.50;;;4.20;99.90;;;;;;4003751;29;20167;-94
2021/01/05 15:50:09;;;;;;;34.83;19.63;;;4.20;99.90;;;;;;3987687;29;20233;-93
2021/01/05 15:52:12;;;;;;;39.70;22.37;;;4.10;99.90;;;;;;4005025;29;20215;-94
2021/01/05 15:54:15;;;;;;;33.87;19.10;;;4.00;99.90;;;;;;4003329;29;20659;-94
2021/01/05 15:56:22;;;;;;;40.43;21.47;;;3.90;99.90;;;;;;4002765;29;20188;-93
2021/01/05 15:58:26;;;;;;;39.67;21.73;;;4.00;99.90;;;;;;4004584;29;20189;-93
2021/01/05 16:00:28;;;;;;;40.80;21.67;;;4.00;99.90;;;;;;3989736;29;20187;-93
2021/01/05 16:02:32;;;;;;;41.57;22.57;;;4.10;99.90;;;;;;3991163;29;20176;-92
2021/01/05 16:04:37;;;;;;;41.27;22.50;;;4.10;99.90;;;;;;4004614;29;20225;-94
2021/01/05 16:06:45;;;;;;;38.60;21.67;;;4.10;99.90;;;;;;3993173;29;20193;-90
2021/01/05 16:08:48;;;;;;;40.63;23.57;;;4.10;99.90;;;;;;4003842;29;20186;-93
2021/01/05 16:10:51;;;;;;;41.27;23.10;;;4.10;99.90;;;;;;4003261;29;20179;-94
2021/01/05 16:12:56;;;;;;;44.47;22.80;;;4.10;99.90;;;;;;3984516;29;20169;-94
2021/01/05 16:14:57;;;;;;;40.63;24.03;;;4.10;99.90;;;;;;4003333;29;20245;-93
2021/01/05 16:16:58;;;;;;;39.13;23.27;;;4.00;99.90;;;;;;3988951;29;20264;-94
2021/01/05 16:19:00;;;;;;;43.43;22.70;;;4.00;99.90;;;;;;3989629;29;20192;-93
2021/01/05 16:21:03;;;;;;;45.23;25.07;;;3.90;99.90;;;;;;4003051;29;20271;-93
2021/01/05 16:23:06;;;;;;;41.87;23.40;;;4.00;99.90;;;;;;4019475;29;20216;-94
2021/01/05 16:25:19;;;;;;;42.37;23.97;;;4.00;99.90;;;;;;3987358;29;20216;-94
2021/01/05 16:27:20;;;;;;;42.87;22.03;;;4.00;99.90;;;;;;4000456;29;20179;-93
2021/01/05 16:29:20;;;;;;;39.93;21.00;;;4.10;99.90;;;;;;3986404;29;20185;-91
2021/01/05 16:31:40;;;;;;;37.73;22.63;;;4.00;99.90;;;;;;3987368;29;20188;-93
2021/01/05 16:33:45;;;;;;;35.20;20.13;;;3.90;99.90;;;;;;4019692;29;20198;-92
2021/01/05 16:35:47;;;;;;;39.17;20.70;;;3.80;99.90;;;;;;4019328;29;20254;-95
2021/01/05 16:37:48;;;;;;;39.70;21.07;;;3.80;99.90;;;;;;3985537;29;20193;-93
2021/01/05 16:39:50;;;;;;;33.73;20.40;;;3.90;99.90;;;;;;4003407;29;20200;-93
2021/01/05 16:41:51;;;;;;;38.67;20.97;;;3.80;99.90;;;;;;4001905;29;20183;-93
2021/01/05 16:43:54;;;;;;;32.27;19.13;;;3.90;99.90;;;;;;4002438;29;20204;-94
2021/01/05 16:45:55;;;;;;;34.87;20.43;;;3.80;99.90;;;;;;4001578;29;20223;-94
2021/01/05 16:47:56;;;;;;;37.20;20.07;;;3.90;99.90;;;;;;3986367;29;20646;-93
2021/01/05 16:50:00;;;;;;;36.03;20.40;;;3.90;99.90;;;;;;3996522;29;20212;-94
2021/01/05 16:52:08;;;;;;;36.80;19.77;;;3.90;99.90;;;;;;3971856;29;20199;-93
2021/01/05 16:54:09;;;;;;;34.17;18.73;;;3.90;99.90;;;;;;4001786;29;20236;-94
2021/01/05 16:56:22;;;;;;;34.60;21.13;;;3.90;99.90;;;;;;4003308;29;20190;-93
2021/01/05 16:58:23;;;;;;;34.07;19.77;;;3.90;99.90;;;;;;4002733;29;20211;-94
2021/01/05 17:00:30;;;;;;;37.73;21.50;;;3.90;99.90;;;;;;4001204;29;20194;-94
2021/01/05 17:02:31;;;;;;;35.37;20.53;;;3.80;99.90;;;;;;3982895;29;20189;-93
2021/01/05 17:04:32;;;;;;;33.03;19.57;;;3.80;99.90;;;;;;3985222;29;20204;-94
2021/01/05 17:06:39;;;;;;;37.53;21.67;;;3.70;99.90;;;;;;4014949;29;20250;-94
2021/01/05 17:08:41;;;;;;;34.07;19.30;;;3.70;99.90;;;;;;3985171;29;20176;-94
2021/01/05 17:10:43;;;;;;;37.07;20.40;;;3.80;99.90;;;;;;4002441;29;20184;-94
2021/01/05 17:12:44;;;;;;;33.13;18.47;;;3.80;99.90;;;;;;4001891;29;20216;-95
2021/01/05 17:14:46;;;;;;;34.40;20.13;;;3.80;99.90;;;;;;4003371;29;20203;-94
2021/01/05 17:16:48;;;;;;;38.90;21.40;;;3.80;99.90;;;;;;3971720;29;20189;-94
2021/01/05 17:18:49;;;;;;;34.40;20.10;;;3.90;99.90;;;;;;3987008;29;20184;-94
2021/01/05 17:20:50;;;;;;;39.77;21.83;;;3.90;99.90;;;;;;3987480;29;20180;-94
2021/01/05 17:22:52;;;;;;;39.93;21.13;;;3.90;99.90;;;;;;3986647;29;20659;-94
2021/01/05 17:24:54;;;;;;;36.30;21.47;;;3.90;99.90;;;;;;4004338;29;20314;-94
2021/01/05 17:26:55;;;;;;;35.03;20.43;;;3.90;99.90;;;;;;4003696;29;20192;-93
2021/01/05 17:28:57;;;;;;;35.43;21.60;;;3.90;99.90;;;;;;4003715;29;20194;-94
2021/01/05 17:30:59;;;;;;;35.53;20.27;;;3.90;99.90;;;;;;3988408;29;20241;-94
2021/01/05 17:33:07;;;;;;;34.07;20.70;;;3.90;99.90;;;;;;4002149;29;20188;-94
2021/01/05 17:35:12;;;;;;;30.50;17.07;;;3.90;99.90;;;;;;3972504;29;20185;-94
2021/01/05 17:37:16;;;;;;;40.53;21.63;;;3.90;99.90;;;;;;4003350;29;20183;-94
2021/01/05 17:39:17;;;;;;;37.77;22.30;;;3.90;99.90;;;;;;3986579;29;20231;-94
2021/01/05 17:41:26;;;;;;;33.63;20.00;;;3.90;99.90;;;;;;4001991;29;20240;-94
2021/01/05 17:43:27;;;;;;;38.17;21.97;;;3.80;99.90;;;;;;3987626;29;20192;-94
2021/01/05 17:45:30;;;;;;;37.37;23.03;;;3.90;99.90;;;;;;4001402;29;20219;-93
2021/01/05 17:47:31;;;;;;;37.00;22.23;;;3.80;99.90;;;;;;4002907;29;20275;-93
2021/01/05 17:49:32;;;;;;;35.20;21.00;;;3.90;99.90;;;;;;4001614;29;20195;-93
2021/01/05 17:51:32;;;;;;;37.67;22.50;;;3.90;99.90;;;;;;4001031;29;20201;-93
2021/01/05 17:53:33;;;;;;;39.23;22.23;;;3.90;99.90;;;;;;3999812;29;20214;-94
2021/01/05 17:55:38;;;;;;;36.60;21.20;;;4.00;99.90;;;;;;4019568;29;20191;-94
2021/01/05 17:57:43;;;;;;;37.50;23.83;;;3.90;99.90;;;;;;4005208;29;20215;-94
2021/01/05 17:59:44;;;;;;;34.83;21.13;;;3.90;99.90;;;;;;4003982;29;20256;-94
2021/01/05 18:01:47;;;;;;;37.87;22.90;;;3.90;99.90;;;;;;3987374;29;20188;-94
2021/01/05 18:03:49;;;;;;;37.33;23.20;;;3.90;99.90;;;;;;3984783;29;20273;-94
2021/01/05 18:05:53;;;;;;;36.40;22.07;;;3.90;99.90;;;;;;3989089;29;20291;-93
2021/01/05 18:08:04;;;;;;;37.93;20.80;;;3.80;99.90;;;;;;4001069;29;20176;-94
2021/01/05 18:10:08;;;;;;;36.20;21.93;;;3.80;99.90;;;;;;4002443;29;20172;-93
2021/01/05 18:12:10;;;;;;;39.30;23.13;;;3.90;99.90;;;;;;4001421;29;20183;-93
2021/01/05 18:14:14;;;;;;;35.87;21.37;;;4.00;99.90;;;;;;3985586;29;20268;-94
2021/01/05 18:16:31;;;;;;;36.50;21.77;;;4.00;99.90;;;;;;3986009;29;20184;-94
2021/01/05 18:18:32;;;;;;;41.70;23.27;;;4.10;99.90;;;;;;4000926;29;20188;-93
2021/01/05 18:20:37;;;;;;;40.77;22.53;;;4.10;99.90;;;;;;3986515;29;20215;-93
2021/01/05 18:22:38;;;;;;;36.63;21.50;;;4.00;99.90;;;;;;3986264;29;20184;-95
2021/01/05 18:24:42;;;;;;;38.57;22.87;;;3.90;99.90;;;;;;4002962;29;20284;-93
2021/01/05 18:26:51;;;;;;;41.43;24.90;;;3.90;99.90;;;;;;4001736;29;20188;-91
2021/01/05 18:28:52;;;;;;;40.90;22.73;;;3.80;99.90;;;;;;4003149;29;20180;-94
2021/01/05 18:30:56;;;;;;;38.23;23.83;;;3.80;99.90;;;;;;3985081;29;20192;-91
2021/01/05 18:32:57;;;;;;;34.37;20.70;;;3.70;99.90;;;;;;3968926;30;20189;-94
2021/01/05 18:35:00;;;;;;;37.63;22.17;;;3.70;99.90;;;;;;4013096;29;20198;-93
2021/01/05 18:37:03;;;;;;;37.73;20.50;;;3.70;99.90;;;;;;3985017;29;20209;-93
2021/01/05 18:39:11;;;;;;;35.47;20.17;;;3.80;99.90;;;;;;4015408;29;20301;-92
2021/01/05 18:41:12;;;;;;;36.60;20.17;;;3.80;99.90;;;;;;3985649;29;20176;-93
2021/01/05 18:43:13;;;;;;;39.67;21.73;;;3.70;99.90;;;;;;4003666;29;20248;-94
2021/01/05 18:45:19;;;;;;;33.60;19.63;;;3.60;99.90;;;;;;3998136;29;20302;-94
2021/01/05 18:47:21;;;;;;;41.70;22.20;;;3.80;99.90;;;;;;4000587;29;20187;-93
2021/01/05 18:49:24;;;;;;;41.23;23.77;;;3.90;99.90;;;;;;3974223;30;20747;-94
2021/01/05 18:51:30;;;;;;;35.40;20.17;;;4.00;99.90;;;;;;4003189;29;20292;-95
2021/01/05 18:53:32;;;;;;;38.60;22.43;;;4.00;99.90;;;;;;4005255;29;20195;-93
2021/01/05 18:55:33;;;;;;;39.20;22.93;;;4.10;99.90;;;;;;4005323;29;20191;-94
2021/01/05 18:57:34;;;;;;;38.07;22.13;;;4.10;99.90;;;;;;4002378;29;20540;-93
2021/01/05 18:59:38;;;;;;;39.83;24.07;;;3.90;99.90;;;;;;4001804;29;20191;-94
2021/01/05 19:01:40;;;;;;;33.87;20.23;;;3.90;99.90;;;;;;4001181;29;20179;-93
2021/01/05 19:03:42;;;;;;;33.83;20.17;;;3.90;99.90;;;;;;4004974;29;20211;-94
2021/01/05 19:07:52;;;;;;;36.47;20.13;;;3.70;99.90;;;;;;4014229;29;20233;-93
2021/01/05 19:09:53;;;;;;;38.20;22.53;;;3.70;99.90;;;;;;4003002;29;20190;-93
2021/01/05 19:11:55;;;;;;;36.97;23.30;;;3.80;99.90;;;;;;4000871;29;20195;-93
2021/01/05 19:13:56;;;;;;;37.27;22.67;;;3.80;99.90;;;;;;3999894;29;20199;-94
2021/01/05 19:15:59;;;;;;;36.63;21.77;;;3.80;99.90;;;;;;4004707;29;20183;-94
2021/01/05 19:18:05;;;;;;;37.33;22.10;;;3.80;99.90;;;;;;4022085;29;20171;-94
2021/01/05 19:20:10;;;;;;;38.80;22.33;;;3.90;99.90;;;;;;4004975;29;20164;-92
2021/01/05 19:22:14;;;;;;;37.27;21.60;;;3.90;99.90;;;;;;4004197;29;20281;-93
2021/01/05 19:24:17;;;;;;;34.70;20.07;;;4.00;99.90;;;;;;4017146;29;20225;-94
2021/01/05 19:26:21;;;;;;;39.23;22.13;;;3.90;99.90;;;;;;3989210;29;20228;-94
2021/01/05 19:28:25;;;;;;;37.37;22.47;;;3.90;99.90;;;;;;4005008;29;20632;-94
2021/01/05 19:30:31;;;;;;;38.70;23.10;;;4.00;99.90;;;;;;4006189;29;20168;-93
2021/01/05 19:32:32;;;;;;;38.67;22.90;;;3.90;99.90;;;;;;3993188;29;20184;-93
2021/01/05 19:34:53;;;;;;;36.67;22.77;;;3.90;99.90;;;;;;4005265;29;20200;-94
2021/01/05 19:36:54;;;;;;;41.00;23.87;;;3.90;99.90;;;;;;3993196;29;20291;-94
2021/01/05 19:39:38;;;;;;;42.10;24.40;;;4.00;99.90;;;;;;4006278;29;20194;-91
2021/01/05 19:41:43;;;;;;;34.03;18.87;;;4.00;99.90;;;;;;3976964;29;20203;-94
2021/01/05 19:44:03;;;;;;;38.37;22.63;;;3.90;99.90;;;;;;4007345;29;20205;-95
2021/01/05 19:46:05;;;;;;;36.80;21.57;;;3.90;99.90;;;;;;4006466;29;20302;-94
2021/01/05 19:48:10;;;;;;;37.40;21.67;;;3.80;99.90;;;;;;3993604;29;20188;-93
2021/01/05 19:50:17;;;;;;;41.80;23.63;;;3.80;99.90;;;;;;4007281;29;20192;-93
2021/01/05 19:52:18;;;;;;;38.03;22.50;;;3.80;99.90;;;;;;3977115;29;20186;-94
2021/01/05 19:54:45;;;;;;;41.37;23.73;;;3.80;99.90;;;;;;4025861;29;20209;-94
2021/01/05 19:57:27;;;;;;;38.50;24.37;;;3.80;99.90;;;;;;4010253;29;20199;-95
2021/01/05 19:59:32;;;;;;;39.97;22.97;;;3.80;99.90;;;;;;4023573;29;20198;-93
2021/01/05 20:01:47;;;;;;;39.93;22.83;;;3.80;99.90;;;;;;4025163;29;20190;-94
2021/01/05 20:04:27;;;;;;;38.37;20.27;;;3.80;99.90;;;;;;4022831;29;20219;-94
2021/01/05 20:06:29;;;;;;;40.10;22.57;;;3.70;99.90;;;;;;4007357;29;20243;-94